sensor_id;sensor_type;location;lat;lon;timestamp;P1;durP1;ratioP1;P2;durP2;ratioP2
63018;SDS011;49105;46.046;10.760;2023-04-15T00:02:16;2.42;;;2.42;;
63018;SDS011;49105;46.046;10.760;2023-04-15T00:04:54;3.00;;;2.90;;
63018;SDS011;49105;46.046;10.760;2023-04-15T00:07:20;3.25;;;3.15;;
63018;SDS011;49105;46.046;10.760;2023-04-15T00:09:52;3.20;;;3.10;;
63018;SDS011;49105;46.046;10.760;2023-04-15T00:12:25;3.10;;;3.00;;
63018;SDS011;49105;46.046;10.760;2023-04-15T00:14:51;2.97;;;2.88;;
63018;SDS011;49105;46.046;10.760;2023-04-15T00:17:17;2.47;;;2.47;;
63018;SDS011;49105;46.046;10.760;2023-04-15T00:19:49;3.15;;;3.05;;
63018;SDS011;49105;46.046;10.760;2023-04-15T00:22:14;3.03;;;2.92;;
63018;SDS011;49105;46.046;10.760;2023-04-15T00:24:51;3.20;;;3.10;;
63018;SDS011;49105;46.046;10.760;2023-04-15T00:27:17;3.25;;;3.15;;
63018;SDS011;49105;46.046;10.760;2023-04-15T00:29:51;3.40;;;3.30;;
63018;SDS011;49105;46.046;10.760;2023-04-15T00:32:17;2.95;;;2.85;;
63018;SDS011;49105;46.046;10.760;2023-04-15T00:34:42;3.35;;;3.25;;
63018;SDS011;49105;46.046;10.760;2023-04-15T00:37:11;2.90;;;2.80;;
63018;SDS011;49105;46.046;10.760;2023-04-15T00:39:39;2.53;;;2.53;;
63018;SDS011;49105;46.046;10.760;2023-04-15T00:42:05;2.95;;;2.85;;
63018;SDS011;49105;46.046;10.760;2023-04-15T00:44:31;3.00;;;2.90;;
63018;SDS011;49105;46.046;10.760;2023-04-15T00:50:06;3.28;;;3.17;;
63018;SDS011;49105;46.046;10.760;2023-04-15T00:52:36;3.13;;;3.03;;
63018;SDS011;49105;46.046;10.760;2023-04-15T00:55:03;3.03;;;2.92;;
63018;SDS011;49105;46.046;10.760;2023-04-15T00:57:35;3.13;;;3.03;;
63018;SDS011;49105;46.046;10.760;2023-04-15T01:00:02;2.60;;;2.60;;
63018;SDS011;49105;46.046;10.760;2023-04-15T01:02:38;2.85;;;2.75;;
63018;SDS011;49105;46.046;10.760;2023-04-15T01:05:13;3.03;;;2.92;;
63018;SDS011;49105;46.046;10.760;2023-04-15T01:07:47;2.90;;;2.80;;
63018;SDS011;49105;46.046;10.760;2023-04-15T01:10:13;2.97;;;2.88;;
63018;SDS011;49105;46.046;10.760;2023-04-15T01:12:48;2.88;;;2.78;;
63018;SDS011;49105;46.046;10.760;2023-04-15T01:15:22;2.40;;;2.40;;
63018;SDS011;49105;46.046;10.760;2023-04-15T01:17:48;2.50;;;2.50;;
63018;SDS011;49105;46.046;10.760;2023-04-15T01:20:17;3.00;;;2.90;;
63018;SDS011;49105;46.046;10.760;2023-04-15T01:22:44;3.33;;;3.22;;
63018;SDS011;49105;46.046;10.760;2023-04-15T01:25:11;2.83;;;2.72;;
63018;SDS011;49105;46.046;10.760;2023-04-15T01:27:47;2.90;;;2.80;;
63018;SDS011;49105;46.046;10.760;2023-04-15T01:30:13;3.22;;;3.13;;
63018;SDS011;49105;46.046;10.760;2023-04-15T01:32:39;3.00;;;2.90;;
63018;SDS011;49105;46.046;10.760;2023-04-15T01:35:05;3.10;;;3.00;;
63018;SDS011;49105;46.046;10.760;2023-04-15T01:37:31;2.97;;;2.88;;
63018;SDS011;49105;46.046;10.760;2023-04-15T01:40:06;3.45;;;3.35;;
63018;SDS011;49105;46.046;10.760;2023-04-15T01:42:32;3.38;;;3.28;;
63018;SDS011;49105;46.046;10.760;2023-04-15T01:45:07;3.20;;;3.10;;
63018;SDS011;49105;46.046;10.760;2023-04-15T01:47:39;2.70;;;2.65;;
63018;SDS011;49105;46.046;10.760;2023-04-15T01:52:50;3.00;;;2.90;;
63018;SDS011;49105;46.046;10.760;2023-04-15T01:55:22;3.33;;;3.22;;
63018;SDS011;49105;46.046;10.760;2023-04-15T01:57:53;2.72;;;2.65;;
63018;SDS011;49105;46.046;10.760;2023-04-15T02:00:19;3.47;;;3.38;;
63018;SDS011;49105;46.046;10.760;2023-04-15T02:02:46;3.10;;;3.00;;
63018;SDS011;49105;46.046;10.760;2023-04-15T02:05:15;2.88;;;2.78;;
63018;SDS011;49105;46.046;10.760;2023-04-15T02:07:50;3.20;;;3.10;;
63018;SDS011;49105;46.046;10.760;2023-04-15T02:10:25;2.92;;;2.83;;
63018;SDS011;49105;46.046;10.760;2023-04-15T02:12:57;2.80;;;2.70;;
63018;SDS011;49105;46.046;10.760;2023-04-15T02:15:31;3.05;;;2.95;;
63018;SDS011;49105;46.046;10.760;2023-04-15T02:18:09;2.95;;;2.85;;
63018;SDS011;49105;46.046;10.760;2023-04-15T02:20:38;3.25;;;3.15;;
63018;SDS011;49105;46.046;10.760;2023-04-15T02:23:04;3.20;;;3.10;;
63018;SDS011;49105;46.046;10.760;2023-04-15T02:25:31;3.33;;;3.22;;
63018;SDS011;49105;46.046;10.760;2023-04-15T02:28:08;2.90;;;2.80;;
63018;SDS011;49105;46.046;10.760;2023-04-15T02:30:46;3.00;;;2.90;;
63018;SDS011;49105;46.046;10.760;2023-04-15T02:33:12;2.95;;;2.85;;
63018;SDS011;49105;46.046;10.760;2023-04-15T02:35:38;2.90;;;2.80;;
63018;SDS011;49105;46.046;10.760;2023-04-15T02:38:06;3.38;;;3.28;;
63018;SDS011;49105;46.046;10.760;2023-04-15T02:40:31;3.10;;;3.00;;
63018;SDS011;49105;46.046;10.760;2023-04-15T02:43:03;3.22;;;3.13;;
63018;SDS011;49105;46.046;10.760;2023-04-15T02:45:30;3.20;;;3.10;;
63018;SDS011;49105;46.046;10.760;2023-04-15T02:47:56;2.60;;;2.60;;
63018;SDS011;49105;46.046;10.760;2023-04-15T02:50:22;2.85;;;2.75;;
63018;SDS011;49105;46.046;10.760;2023-04-15T02:52:49;2.90;;;2.80;;
63018;SDS011;49105;46.046;10.760;2023-04-15T02:55:15;2.90;;;2.80;;
63018;SDS011;49105;46.046;10.760;2023-04-15T02:57:42;3.38;;;3.28;;
63018;SDS011;49105;46.046;10.760;2023-04-15T03:00:08;2.90;;;2.80;;
63018;SDS011;49105;46.046;10.760;2023-04-15T03:02:57;3.08;;;2.97;;
63018;SDS011;49105;46.046;10.760;2023-04-15T03:05:22;2.90;;;2.80;;
63018;SDS011;49105;46.046;10.760;2023-04-15T03:07:51;2.80;;;2.70;;
63018;SDS011;49105;46.046;10.760;2023-04-15T03:10:17;3.03;;;2.92;;
63018;SDS011;49105;46.046;10.760;2023-04-15T03:12:43;3.13;;;3.03;;
63018;SDS011;49105;46.046;10.760;2023-04-15T03:15:10;3.42;;;3.33;;
63018;SDS011;49105;46.046;10.760;2023-04-15T03:17:39;2.88;;;2.78;;
63018;SDS011;49105;46.046;10.760;2023-04-15T03:20:04;2.92;;;2.83;;
63018;SDS011;49105;46.046;10.760;2023-04-15T03:22:31;2.80;;;2.70;;
63018;SDS011;49105;46.046;10.760;2023-04-15T03:25:03;3.15;;;3.05;;
63018;SDS011;49105;46.046;10.760;2023-04-15T03:27:29;3.22;;;3.13;;
63018;SDS011;49105;46.046;10.760;2023-04-15T03:29:54;2.60;;;2.60;;
63018;SDS011;49105;46.046;10.760;2023-04-15T03:32:23;2.80;;;2.70;;
63018;SDS011;49105;46.046;10.760;2023-04-15T03:34:53;3.08;;;2.97;;
63018;SDS011;49105;46.046;10.760;2023-04-15T03:37:18;3.28;;;3.17;;
63018;SDS011;49105;46.046;10.760;2023-04-15T03:39:44;3.17;;;3.08;;
63018;SDS011;49105;46.046;10.760;2023-04-15T03:42:10;2.90;;;2.80;;
63018;SDS011;49105;46.046;10.760;2023-04-15T03:44:36;3.15;;;3.05;;
63018;SDS011;49105;46.046;10.760;2023-04-15T03:47:02;3.00;;;2.90;;
63018;SDS011;49105;46.046;10.760;2023-04-15T03:49:34;2.90;;;2.80;;
63018;SDS011;49105;46.046;10.760;2023-04-15T03:52:09;3.00;;;2.90;;
63018;SDS011;49105;46.046;10.760;2023-04-15T03:54:47;3.42;;;3.33;;
63018;SDS011;49105;46.046;10.760;2023-04-15T03:57:25;2.92;;;2.83;;
63018;SDS011;49105;46.046;10.760;2023-04-15T04:03:12;2.80;;;2.70;;
63018;SDS011;49105;46.046;10.760;2023-04-15T04:05:38;2.90;;;2.80;;
63018;SDS011;49105;46.046;10.760;2023-04-15T04:08:05;3.38;;;3.28;;
63018;SDS011;49105;46.046;10.760;2023-04-15T04:10:31;2.55;;;2.55;;
63018;SDS011;49105;46.046;10.760;2023-04-15T04:13:02;2.95;;;2.85;;
63018;SDS011;49105;46.046;10.760;2023-04-15T04:15:28;3.10;;;3.00;;
63018;SDS011;49105;46.046;10.760;2023-04-15T04:17:53;3.15;;;3.05;;
63018;SDS011;49105;46.046;10.760;2023-04-15T04:20:19;2.83;;;2.72;;
63018;SDS011;49105;46.046;10.760;2023-04-15T04:22:51;3.05;;;2.95;;
63018;SDS011;49105;46.046;10.760;2023-04-15T04:25:24;2.60;;;2.60;;
63018;SDS011;49105;46.046;10.760;2023-04-15T04:27:50;2.90;;;2.80;;
63018;SDS011;49105;46.046;10.760;2023-04-15T04:30:24;2.47;;;2.47;;
63018;SDS011;49105;46.046;10.760;2023-04-15T04:32:50;2.63;;;2.60;;
63018;SDS011;49105;46.046;10.760;2023-04-15T04:35:15;2.50;;;2.50;;
63018;SDS011;49105;46.046;10.760;2023-04-15T04:37:41;2.45;;;2.45;;
63018;SDS011;49105;46.046;10.760;2023-04-15T04:40:07;2.15;;;2.15;;
63018;SDS011;49105;46.046;10.760;2023-04-15T04:42:33;2.28;;;2.28;;
63018;SDS011;49105;46.046;10.760;2023-04-15T04:47:43;2.20;;;2.20;;
63018;SDS011;49105;46.046;10.760;2023-04-15T04:50:09;2.38;;;2.38;;
63018;SDS011;49105;46.046;10.760;2023-04-15T04:52:44;2.72;;;2.67;;
63018;SDS011;49105;46.046;10.760;2023-04-15T04:55:10;2.60;;;2.60;;
63018;SDS011;49105;46.046;10.760;2023-04-15T04:57:36;2.60;;;2.50;;
63018;SDS011;49105;46.046;10.760;2023-04-15T05:00:03;2.80;;;2.70;;
63018;SDS011;49105;46.046;10.760;2023-04-15T05:02:39;2.25;;;2.25;;
63018;SDS011;49105;46.046;10.760;2023-04-15T05:05:14;2.80;;;2.70;;
63018;SDS011;49105;46.046;10.760;2023-04-15T05:07:43;2.40;;;2.40;;
63018;SDS011;49105;46.046;10.760;2023-04-15T05:10:09;2.72;;;2.63;;
63018;SDS011;49105;46.046;10.760;2023-04-15T05:12:35;3.10;;;3.00;;
63018;SDS011;49105;46.046;10.760;2023-04-15T05:15:01;3.05;;;2.95;;
63018;SDS011;49105;46.046;10.760;2023-04-15T05:17:36;2.03;;;2.03;;
63018;SDS011;49105;46.046;10.760;2023-04-15T05:20:10;4.07;;;3.28;;
63018;SDS011;49105;46.046;10.760;2023-04-15T05:22:45;2.60;;;2.60;;
63018;SDS011;49105;46.046;10.760;2023-04-15T05:25:14;2.17;;;2.17;;
63018;SDS011;49105;46.046;10.760;2023-04-15T05:27:43;2.28;;;2.28;;
63018;SDS011;49105;46.046;10.760;2023-04-15T05:30:14;2.60;;;2.50;;
63018;SDS011;49105;46.046;10.760;2023-04-15T05:32:46;2.30;;;2.30;;
63018;SDS011;49105;46.046;10.760;2023-04-15T05:40:59;2.17;;;2.17;;
63018;SDS011;49105;46.046;10.760;2023-04-15T05:43:25;1.80;;;1.80;;
63018;SDS011;49105;46.046;10.760;2023-04-15T05:46:00;2.22;;;2.17;;
63018;SDS011;49105;46.046;10.760;2023-04-15T05:48:25;4.30;;;2.30;;
63018;SDS011;49105;46.046;10.760;2023-04-15T05:50:51;3.85;;;3.65;;
63018;SDS011;49105;46.046;10.760;2023-04-15T05:53:23;1.90;;;1.90;;
63018;SDS011;49105;46.046;10.760;2023-04-15T05:58:19;3.03;;;2.92;;
63018;SDS011;49105;46.046;10.760;2023-04-15T06:00:48;2.30;;;2.10;;
63018;SDS011;49105;46.046;10.760;2023-04-15T06:03:14;1.73;;;1.73;;
63018;SDS011;49105;46.046;10.760;2023-04-15T06:05:52;1.98;;;1.98;;
63018;SDS011;49105;46.046;10.760;2023-04-15T06:08:21;2.08;;;2.08;;
63018;SDS011;49105;46.046;10.760;2023-04-15T06:10:57;1.80;;;1.80;;
63018;SDS011;49105;46.046;10.760;2023-04-15T06:13:25;1.80;;;1.80;;
63018;SDS011;49105;46.046;10.760;2023-04-15T06:15:51;1.70;;;1.70;;
63018;SDS011;49105;46.046;10.760;2023-04-15T06:18:23;2.00;;;2.00;;
63018;SDS011;49105;46.046;10.760;2023-04-15T06:20:49;2.70;;;2.60;;
63018;SDS011;49105;46.046;10.760;2023-04-15T06:23:15;2.50;;;2.50;;
63018;SDS011;49105;46.046;10.760;2023-04-15T06:25:40;2.10;;;2.10;;
63018;SDS011;49105;46.046;10.760;2023-04-15T06:28:13;2.35;;;2.35;;
63018;SDS011;49105;46.046;10.760;2023-04-15T06:30:47;1.70;;;1.70;;
63018;SDS011;49105;46.046;10.760;2023-04-15T06:33:13;1.90;;;1.90;;
63018;SDS011;49105;46.046;10.760;2023-04-15T06:35:39;2.20;;;2.20;;
63018;SDS011;49105;46.046;10.760;2023-04-15T06:38:13;1.88;;;1.88;;
63018;SDS011;49105;46.046;10.760;2023-04-15T06:40:45;2.35;;;2.30;;
63018;SDS011;49105;46.046;10.760;2023-04-15T06:43:10;2.10;;;2.10;;
63018;SDS011;49105;46.046;10.760;2023-04-15T06:45:36;1.98;;;1.98;;
63018;SDS011;49105;46.046;10.760;2023-04-15T06:48:01;2.15;;;2.15;;
63018;SDS011;49105;46.046;10.760;2023-04-15T06:50:30;1.55;;;1.55;;
63018;SDS011;49105;46.046;10.760;2023-04-15T06:53:07;1.92;;;1.92;;
63018;SDS011;49105;46.046;10.760;2023-04-15T06:55:36;1.90;;;1.90;;
63018;SDS011;49105;46.046;10.760;2023-04-15T06:58:13;2.00;;;2.00;;
63018;SDS011;49105;46.046;10.760;2023-04-15T07:00:39;2.13;;;2.13;;
63018;SDS011;49105;46.046;10.760;2023-04-15T07:03:04;2.10;;;2.10;;
63018;SDS011;49105;46.046;10.760;2023-04-15T07:05:36;2.17;;;2.17;;
63018;SDS011;49105;46.046;10.760;2023-04-15T07:08:02;1.90;;;1.90;;
63018;SDS011;49105;46.046;10.760;2023-04-15T07:10:31;1.95;;;1.88;;
63018;SDS011;49105;46.046;10.760;2023-04-15T07:13:05;1.70;;;1.70;;
63018;SDS011;49105;46.046;10.760;2023-04-15T07:15:32;1.40;;;1.40;;
63018;SDS011;49105;46.046;10.760;2023-04-15T07:18:08;1.27;;;1.27;;
63018;SDS011;49105;46.046;10.760;2023-04-15T07:20:42;1.50;;;1.50;;
63018;SDS011;49105;46.046;10.760;2023-04-15T07:23:08;1.25;;;1.25;;
63018;SDS011;49105;46.046;10.760;2023-04-15T07:25:33;1.20;;;1.20;;
63018;SDS011;49105;46.046;10.760;2023-04-15T07:27:59;1.48;;;1.48;;
63018;SDS011;49105;46.046;10.760;2023-04-15T07:30:25;1.30;;;1.30;;
63018;SDS011;49105;46.046;10.760;2023-04-15T07:35:43;1.35;;;1.35;;
63018;SDS011;49105;46.046;10.760;2023-04-15T07:40:36;1.40;;;1.40;;
63018;SDS011;49105;46.046;10.760;2023-04-15T07:43:03;1.50;;;1.50;;
63018;SDS011;49105;46.046;10.760;2023-04-15T07:45:29;1.65;;;1.65;;
63018;SDS011;49105;46.046;10.760;2023-04-15T07:47:55;1.58;;;1.58;;
63018;SDS011;49105;46.046;10.760;2023-04-15T07:50:21;1.50;;;1.50;;
63018;SDS011;49105;46.046;10.760;2023-04-15T07:52:48;1.55;;;1.55;;
63018;SDS011;49105;46.046;10.760;2023-04-15T07:55:17;1.63;;;1.63;;
63018;SDS011;49105;46.046;10.760;2023-04-15T07:57:45;1.60;;;1.60;;
63018;SDS011;49105;46.046;10.760;2023-04-15T08:00:11;1.48;;;1.48;;
63018;SDS011;49105;46.046;10.760;2023-04-15T08:02:46;1.33;;;1.33;;
63018;SDS011;49105;46.046;10.760;2023-04-15T08:05:15;1.25;;;1.25;;
63018;SDS011;49105;46.046;10.760;2023-04-15T08:07:53;1.40;;;1.40;;
63018;SDS011;49105;46.046;10.760;2023-04-15T08:10:19;1.48;;;1.48;;
63018;SDS011;49105;46.046;10.760;2023-04-15T08:12:44;1.10;;;1.10;;
63018;SDS011;49105;46.046;10.760;2023-04-15T08:15:13;1.45;;;1.45;;
63018;SDS011;49105;46.046;10.760;2023-04-15T08:17:39;1.50;;;1.50;;
63018;SDS011;49105;46.046;10.760;2023-04-15T08:20:10;1.90;;;1.90;;
63018;SDS011;49105;46.046;10.760;2023-04-15T08:22:37;1.50;;;1.50;;
63018;SDS011;49105;46.046;10.760;2023-04-15T08:25:06;1.40;;;1.40;;
63018;SDS011;49105;46.046;10.760;2023-04-15T08:27:36;1.40;;;1.40;;
63018;SDS011;49105;46.046;10.760;2023-04-15T08:30:01;1.60;;;1.60;;
63018;SDS011;49105;46.046;10.760;2023-04-15T08:32:35;1.50;;;1.50;;
63018;SDS011;49105;46.046;10.760;2023-04-15T08:35:09;1.90;;;1.90;;
63018;SDS011;49105;46.046;10.760;2023-04-15T08:37:44;1.65;;;1.65;;
63018;SDS011;49105;46.046;10.760;2023-04-15T08:40:12;2.00;;;2.00;;
63018;SDS011;49105;46.046;10.760;2023-04-15T08:42:42;1.58;;;1.58;;
63018;SDS011;49105;46.046;10.760;2023-04-15T08:45:13;1.60;;;1.60;;
63018;SDS011;49105;46.046;10.760;2023-04-15T08:47:39;1.40;;;1.40;;
63018;SDS011;49105;46.046;10.760;2023-04-15T08:50:13;1.70;;;1.70;;
63018;SDS011;49105;46.046;10.760;2023-04-15T08:52:54;1.42;;;1.42;;
63018;SDS011;49105;46.046;10.760;2023-04-15T08:55:20;1.60;;;1.60;;
63018;SDS011;49105;46.046;10.760;2023-04-15T08:57:46;1.60;;;1.60;;
63018;SDS011;49105;46.046;10.760;2023-04-15T09:00:21;1.50;;;1.50;;
63018;SDS011;49105;46.046;10.760;2023-04-15T09:02:56;1.42;;;1.42;;
63018;SDS011;49105;46.046;10.760;2023-04-15T09:05:23;1.90;;;1.90;;
63018;SDS011;49105;46.046;10.760;2023-04-15T09:07:54;1.60;;;1.60;;
63018;SDS011;49105;46.046;10.760;2023-04-15T09:10:20;1.60;;;1.60;;
63018;SDS011;49105;46.046;10.760;2023-04-15T09:12:55;1.67;;;1.67;;
63018;SDS011;49105;46.046;10.760;2023-04-15T09:15:21;1.65;;;1.65;;
63018;SDS011;49105;46.046;10.760;2023-04-15T09:17:49;1.80;;;1.80;;
63018;SDS011;49105;46.046;10.760;2023-04-15T09:20:15;1.30;;;1.30;;
63018;SDS011;49105;46.046;10.760;2023-04-15T09:22:44;1.50;;;1.50;;
63018;SDS011;49105;46.046;10.760;2023-04-15T09:27:58;1.50;;;1.50;;
63018;SDS011;49105;46.046;10.760;2023-04-15T09:30:28;1.50;;;1.50;;
63018;SDS011;49105;46.046;10.760;2023-04-15T09:33:04;1.42;;;1.42;;
63018;SDS011;49105;46.046;10.760;2023-04-15T09:35:41;1.38;;;1.38;;
63018;SDS011;49105;46.046;10.760;2023-04-15T09:38:19;1.40;;;1.40;;
63018;SDS011;49105;46.046;10.760;2023-04-15T09:40:54;1.50;;;1.50;;
63018;SDS011;49105;46.046;10.760;2023-04-15T09:43:38;1.75;;;1.75;;
63018;SDS011;49105;46.046;10.760;2023-04-15T09:49:07;1.50;;;1.50;;
63018;SDS011;49105;46.046;10.760;2023-04-15T09:51:40;1.40;;;1.40;;
63018;SDS011;49105;46.046;10.760;2023-04-15T09:54:12;1.45;;;1.45;;
63018;SDS011;49105;46.046;10.760;2023-04-15T09:56:50;1.50;;;1.50;;
63018;SDS011;49105;46.046;10.760;2023-04-15T10:01:48;1.70;;;1.60;;
63018;SDS011;49105;46.046;10.760;2023-04-15T10:04:13;1.30;;;1.30;;
63018;SDS011;49105;46.046;10.760;2023-04-15T10:06:42;1.42;;;1.42;;
63018;SDS011;49105;46.046;10.760;2023-04-15T10:09:20;1.50;;;1.50;;
63018;SDS011;49105;46.046;10.760;2023-04-15T10:11:45;1.60;;;1.60;;
63018;SDS011;49105;46.046;10.760;2023-04-15T10:14:19;1.60;;;1.60;;
63018;SDS011;49105;46.046;10.760;2023-04-15T10:16:55;1.55;;;1.55;;
63018;SDS011;49105;46.046;10.760;2023-04-15T10:19:23;1.45;;;1.45;;
63018;SDS011;49105;46.046;10.760;2023-04-15T10:22:00;1.65;;;1.65;;
63018;SDS011;49105;46.046;10.760;2023-04-15T10:24:38;1.50;;;1.50;;
63018;SDS011;49105;46.046;10.760;2023-04-15T10:27:10;1.50;;;1.50;;
63018;SDS011;49105;46.046;10.760;2023-04-15T10:32:55;1.67;;;1.67;;
63018;SDS011;49105;46.046;10.760;2023-04-15T10:35:24;1.40;;;1.40;;
63018;SDS011;49105;46.046;10.760;2023-04-15T10:37:51;1.52;;;1.52;;
63018;SDS011;49105;46.046;10.760;2023-04-15T10:40:30;1.40;;;1.40;;
63018;SDS011;49105;46.046;10.760;2023-04-15T10:43:00;1.50;;;1.50;;
63018;SDS011;49105;46.046;10.760;2023-04-15T10:45:35;1.63;;;1.63;;
63018;SDS011;49105;46.046;10.760;2023-04-15T10:48:02;1.60;;;1.60;;
63018;SDS011;49105;46.046;10.760;2023-04-15T10:50:30;1.70;;;1.70;;
63018;SDS011;49105;46.046;10.760;2023-04-15T10:52:56;1.70;;;1.70;;
63018;SDS011;49105;46.046;10.760;2023-04-15T10:55:26;1.50;;;1.50;;
63018;SDS011;49105;46.046;10.760;2023-04-15T10:58:02;1.55;;;1.55;;
63018;SDS011;49105;46.046;10.760;2023-04-15T11:08:12;1.73;;;1.73;;
63018;SDS011;49105;46.046;10.760;2023-04-15T11:13:03;1.50;;;1.50;;
63018;SDS011;49105;46.046;10.760;2023-04-15T11:15:39;1.60;;;1.60;;
63018;SDS011;49105;46.046;10.760;2023-04-15T11:18:24;1.60;;;1.60;;
63018;SDS011;49105;46.046;10.760;2023-04-15T11:20:59;1.50;;;1.50;;
63018;SDS011;49105;46.046;10.760;2023-04-15T11:23:40;1.70;;;1.70;;
63018;SDS011;49105;46.046;10.760;2023-04-15T11:26:14;1.80;;;1.80;;
63018;SDS011;49105;46.046;10.760;2023-04-15T11:28:48;2.90;;;1.80;;
63018;SDS011;49105;46.046;10.760;2023-04-15T11:31:23;1.60;;;1.60;;
63018;SDS011;49105;46.046;10.760;2023-04-15T11:34:02;1.83;;;1.83;;
63018;SDS011;49105;46.046;10.760;2023-04-15T11:36:29;1.50;;;1.50;;
63018;SDS011;49105;46.046;10.760;2023-04-15T11:39:03;1.40;;;1.40;;
63018;SDS011;49105;46.046;10.760;2023-04-15T11:41:40;1.67;;;1.67;;
63018;SDS011;49105;46.046;10.760;2023-04-15T11:44:16;1.50;;;1.50;;
63018;SDS011;49105;46.046;10.760;2023-04-15T11:46:48;1.35;;;1.35;;
63018;SDS011;49105;46.046;10.760;2023-04-15T11:49:30;1.40;;;1.40;;
63018;SDS011;49105;46.046;10.760;2023-04-15T11:52:01;1.30;;;1.30;;
63018;SDS011;49105;46.046;10.760;2023-04-15T11:54:35;1.30;;;1.30;;
63018;SDS011;49105;46.046;10.760;2023-04-15T11:57:01;1.40;;;1.40;;
63018;SDS011;49105;46.046;10.760;2023-04-15T11:59:40;1.40;;;1.40;;
63018;SDS011;49105;46.046;10.760;2023-04-15T12:02:17;1.90;;;1.90;;
63018;SDS011;49105;46.046;10.760;2023-04-15T12:04:43;1.80;;;1.80;;
63018;SDS011;49105;46.046;10.760;2023-04-15T12:10:25;1.20;;;1.20;;
63018;SDS011;49105;46.046;10.760;2023-04-15T12:13:00;1.40;;;1.40;;
63018;SDS011;49105;46.046;10.760;2023-04-15T12:15:31;1.50;;;1.50;;
63018;SDS011;49105;46.046;10.760;2023-04-15T12:17:59;1.40;;;1.40;;
63018;SDS011;49105;46.046;10.760;2023-04-15T12:20:31;1.50;;;1.50;;
63018;SDS011;49105;46.046;10.760;2023-04-15T12:23:06;1.67;;;1.67;;
63018;SDS011;49105;46.046;10.760;2023-04-15T12:25:34;1.33;;;1.33;;
63018;SDS011;49105;46.046;10.760;2023-04-15T12:28:00;1.30;;;1.30;;
63018;SDS011;49105;46.046;10.760;2023-04-15T12:30:25;1.40;;;1.40;;
63018;SDS011;49105;46.046;10.760;2023-04-15T12:32:54;1.55;;;1.55;;
63018;SDS011;49105;46.046;10.760;2023-04-15T12:35:24;1.42;;;1.42;;
63018;SDS011;49105;46.046;10.760;2023-04-15T12:37:53;1.40;;;1.40;;
63018;SDS011;49105;46.046;10.760;2023-04-15T12:40:28;1.67;;;1.67;;
63018;SDS011;49105;46.046;10.760;2023-04-15T12:42:59;1.52;;;1.52;;
63018;SDS011;49105;46.046;10.760;2023-04-15T12:45:34;1.48;;;1.48;;
63018;SDS011;49105;46.046;10.760;2023-04-15T12:48:05;5.45;;;1.85;;
63018;SDS011;49105;46.046;10.760;2023-04-15T12:50:32;1.30;;;1.30;;
63018;SDS011;49105;46.046;10.760;2023-04-15T12:53:01;1.20;;;1.20;;
63018;SDS011;49105;46.046;10.760;2023-04-15T12:55:28;1.10;;;1.10;;
63018;SDS011;49105;46.046;10.760;2023-04-15T12:58:04;1.30;;;1.30;;
63018;SDS011;49105;46.046;10.760;2023-04-15T13:00:38;1.33;;;1.33;;
63018;SDS011;49105;46.046;10.760;2023-04-15T13:03:13;1.20;;;1.20;;
63018;SDS011;49105;46.046;10.760;2023-04-15T13:05:43;1.30;;;1.30;;
63018;SDS011;49105;46.046;10.760;2023-04-15T13:08:08;0.90;;;0.90;;
63018;SDS011;49105;46.046;10.760;2023-04-15T13:10:37;1.30;;;1.30;;
63018;SDS011;49105;46.046;10.760;2023-04-15T13:13:09;1.55;;;1.55;;
63018;SDS011;49105;46.046;10.760;2023-04-15T13:15:38;1.27;;;1.27;;
63018;SDS011;49105;46.046;10.760;2023-04-15T13:18:05;1.75;;;1.75;;
63018;SDS011;49105;46.046;10.760;2023-04-15T13:20:39;1.33;;;1.33;;
63018;SDS011;49105;46.046;10.760;2023-04-15T13:23:05;1.50;;;1.40;;
63018;SDS011;49105;46.046;10.760;2023-04-15T13:25:31;1.48;;;1.48;;
63018;SDS011;49105;46.046;10.760;2023-04-15T13:27:56;1.63;;;1.63;;
63018;SDS011;49105;46.046;10.760;2023-04-15T13:30:26;2.03;;;1.92;;
63018;SDS011;49105;46.046;10.760;2023-04-15T13:32:55;1.65;;;1.65;;
63018;SDS011;49105;46.046;10.760;2023-04-15T13:35:31;1.50;;;1.50;;
63018;SDS011;49105;46.046;10.760;2023-04-15T13:37:56;1.52;;;1.52;;
63018;SDS011;49105;46.046;10.760;2023-04-15T13:40:28;1.30;;;1.30;;
63018;SDS011;49105;46.046;10.760;2023-04-15T13:43:00;1.20;;;1.20;;
63018;SDS011;49105;46.046;10.760;2023-04-15T13:48:33;1.20;;;1.20;;
63018;SDS011;49105;46.046;10.760;2023-04-15T13:51:04;1.30;;;1.30;;
63018;SDS011;49105;46.046;10.760;2023-04-15T13:53:36;1.38;;;1.38;;
63018;SDS011;49105;46.046;10.760;2023-04-15T13:56:10;1.60;;;1.60;;
63018;SDS011;49105;46.046;10.760;2023-04-15T13:58:45;1.50;;;1.50;;
63018;SDS011;49105;46.046;10.760;2023-04-15T14:01:10;1.30;;;1.30;;
63018;SDS011;49105;46.046;10.760;2023-04-15T14:03:36;1.20;;;1.20;;
63018;SDS011;49105;46.046;10.760;2023-04-15T14:06:01;1.30;;;1.30;;
63018;SDS011;49105;46.046;10.760;2023-04-15T14:08:39;1.20;;;1.20;;
63018;SDS011;49105;46.046;10.760;2023-04-15T14:11:05;1.40;;;1.40;;
63018;SDS011;49105;46.046;10.760;2023-04-15T14:13:32;1.30;;;1.30;;
63018;SDS011;49105;46.046;10.760;2023-04-15T14:16:04;1.50;;;1.50;;
63018;SDS011;49105;46.046;10.760;2023-04-15T14:18:36;1.40;;;1.40;;
63018;SDS011;49105;46.046;10.760;2023-04-15T14:21:07;1.30;;;1.30;;
63018;SDS011;49105;46.046;10.760;2023-04-15T14:23:42;1.30;;;1.30;;
63018;SDS011;49105;46.046;10.760;2023-04-15T14:26:19;1.40;;;1.40;;
63018;SDS011;49105;46.046;10.760;2023-04-15T14:28:51;1.80;;;1.75;;
63018;SDS011;49105;46.046;10.760;2023-04-15T14:33:58;1.33;;;1.33;;
63018;SDS011;49105;46.046;10.760;2023-04-15T14:36:23;1.70;;;1.70;;
63018;SDS011;49105;46.046;10.760;2023-04-15T14:38:52;1.92;;;1.92;;
63018;SDS011;49105;46.046;10.760;2023-04-15T14:41:17;1.70;;;1.60;;
63018;SDS011;49105;46.046;10.760;2023-04-15T14:43:43;1.30;;;1.30;;
63018;SDS011;49105;46.046;10.760;2023-04-15T14:46:18;1.20;;;1.20;;
63018;SDS011;49105;46.046;10.760;2023-04-15T14:48:52;1.23;;;1.23;;
63018;SDS011;49105;46.046;10.760;2023-04-15T14:51:18;1.30;;;1.30;;
63018;SDS011;49105;46.046;10.760;2023-04-15T14:53:44;1.45;;;1.45;;
63018;SDS011;49105;46.046;10.760;2023-04-15T14:56:16;1.50;;;1.50;;
63018;SDS011;49105;46.046;10.760;2023-04-15T15:01:13;1.50;;;1.50;;
63018;SDS011;49105;46.046;10.760;2023-04-15T15:03:46;1.30;;;1.30;;
63018;SDS011;49105;46.046;10.760;2023-04-15T15:06:19;1.30;;;1.30;;
63018;SDS011;49105;46.046;10.760;2023-04-15T15:08:47;1.30;;;1.30;;
63018;SDS011;49105;46.046;10.760;2023-04-15T15:11:13;1.70;;;1.70;;
63018;SDS011;49105;46.046;10.760;2023-04-15T15:13:50;1.23;;;1.23;;
63018;SDS011;49105;46.046;10.760;2023-04-15T15:16:19;1.25;;;1.25;;
63018;SDS011;49105;46.046;10.760;2023-04-15T15:18:44;1.10;;;1.10;;
63018;SDS011;49105;46.046;10.760;2023-04-15T15:21:22;1.50;;;1.50;;
63018;SDS011;49105;46.046;10.760;2023-04-15T15:24:00;1.45;;;1.45;;
63018;SDS011;49105;46.046;10.760;2023-04-15T15:26:26;1.45;;;1.45;;
63018;SDS011;49105;46.046;10.760;2023-04-15T15:28:55;1.30;;;1.30;;
63018;SDS011;49105;46.046;10.760;2023-04-15T15:31:29;1.38;;;1.38;;
63018;SDS011;49105;46.046;10.760;2023-04-15T15:33:56;1.30;;;1.30;;
63018;SDS011;49105;46.046;10.760;2023-04-15T15:36:28;1.30;;;1.30;;
63018;SDS011;49105;46.046;10.760;2023-04-15T15:38:58;1.48;;;1.48;;
63018;SDS011;49105;46.046;10.760;2023-04-15T15:41:36;1.40;;;1.40;;
63018;SDS011;49105;46.046;10.760;2023-04-15T15:44:10;1.40;;;1.40;;
63018;SDS011;49105;46.046;10.760;2023-04-15T15:46:45;1.30;;;1.30;;
63018;SDS011;49105;46.046;10.760;2023-04-15T15:49:10;1.65;;;1.65;;